sensor_id;sensor_type;location;lat;lon;timestamp;P1;durP1;ratioP1;P2;durP2;ratioP2
24483;SDS011;12643;51.620;7.548;2023-07-20T00:00:25;10.10;;;4.93;;
24483;SDS011;12643;51.620;7.548;2023-07-20T00:02:56;5.82;;;3.78;;
24483;SDS011;12643;51.620;7.548;2023-07-20T00:05:44;10.90;;;5.35;;
24483;SDS011;12643;51.620;7.548;2023-07-20T00:08:14;8.93;;;4.00;;
24483;SDS011;12643;51.620;7.548;2023-07-20T00:10:50;6.40;;;4.05;;
24483;SDS011;12643;51.620;7.548;2023-07-20T00:13:27;7.55;;;4.38;;
24483;SDS011;12643;51.620;7.548;2023-07-20T00:15:55;4.45;;;3.83;;
24483;SDS011;12643;51.620;7.548;2023-07-20T00:18:30;4.45;;;3.92;;
24483;SDS011;12643;51.620;7.548;2023-07-20T00:20:59;6.90;;;3.65;;
24483;SDS011;12643;51.620;7.548;2023-07-20T00:23:27;8.80;;;5.10;;
24483;SDS011;12643;51.620;7.548;2023-07-20T00:25:55;6.53;;;4.30;;
24483;SDS011;12643;51.620;7.548;2023-07-20T00:28:26;9.43;;;5.28;;
24483;SDS011;12643;51.620;7.548;2023-07-20T00:30:54;9.35;;;5.63;;
24483;SDS011;12643;51.620;7.548;2023-07-20T00:33:22;7.35;;;5.07;;
24483;SDS011;12643;51.620;7.548;2023-07-20T00:35:51;7.82;;;5.00;;
24483;SDS011;12643;51.620;7.548;2023-07-20T00:38:19;7.13;;;5.50;;
24483;SDS011;12643;51.620;7.548;2023-07-20T00:40:50;7.35;;;4.68;;
24483;SDS011;12643;51.620;7.548;2023-07-20T00:43:20;6.10;;;5.00;;
24483;SDS011;12643;51.620;7.548;2023-07-20T00:45:51;8.50;;;5.05;;
24483;SDS011;12643;51.620;7.548;2023-07-20T00:48:19;8.23;;;5.38;;
24483;SDS011;12643;51.620;7.548;2023-07-20T00:50:47;5.38;;;4.80;;
24483;SDS011;12643;51.620;7.548;2023-07-20T00:53:17;8.73;;;5.10;;
24483;SDS011;12643;51.620;7.548;2023-07-20T00:55:49;6.28;;;4.50;;
24483;SDS011;12643;51.620;7.548;2023-07-20T00:58:17;7.35;;;4.43;;
24483;SDS011;12643;51.620;7.548;2023-07-20T01:00:48;8.50;;;4.72;;
24483;SDS011;12643;51.620;7.548;2023-07-20T01:03:18;6.30;;;4.75;;
24483;SDS011;12643;51.620;7.548;2023-07-20T01:05:48;4.38;;;3.65;;
24483;SDS011;12643;51.620;7.548;2023-07-20T01:08:24;7.97;;;4.47;;
24483;SDS011;12643;51.620;7.548;2023-07-20T01:11:01;7.50;;;5.13;;
24483;SDS011;12643;51.620;7.548;2023-07-20T01:13:40;5.85;;;4.07;;
24483;SDS011;12643;51.620;7.548;2023-07-20T01:16:08;8.70;;;4.22;;
24483;SDS011;12643;51.620;7.548;2023-07-20T01:18:38;5.97;;;4.03;;
24483;SDS011;12643;51.620;7.548;2023-07-20T01:21:12;7.45;;;4.45;;
24483;SDS011;12643;51.620;7.548;2023-07-20T01:29:50;6.40;;;5.03;;
24483;SDS011;12643;51.620;7.548;2023-07-20T01:32:36;11.27;;;6.00;;
24483;SDS011;12643;51.620;7.548;2023-07-20T01:35:06;11.10;;;5.35;;
24483;SDS011;12643;51.620;7.548;2023-07-20T01:37:35;8.70;;;5.20;;
24483;SDS011;12643;51.620;7.548;2023-07-20T01:40:05;5.95;;;4.55;;
24483;SDS011;12643;51.620;7.548;2023-07-20T01:42:34;9.07;;;4.85;;
24483;SDS011;12643;51.620;7.548;2023-07-20T01:45:02;9.68;;;5.80;;
24483;SDS011;12643;51.620;7.548;2023-07-20T01:47:31;6.00;;;4.00;;
24483;SDS011;12643;51.620;7.548;2023-07-20T01:50:00;8.63;;;5.28;;
24483;SDS011;12643;51.620;7.548;2023-07-20T01:52:28;6.25;;;4.43;;
24483;SDS011;12643;51.620;7.548;2023-07-20T01:54:56;5.53;;;3.95;;
24483;SDS011;12643;51.620;7.548;2023-07-20T01:57:24;5.45;;;4.00;;
24483;SDS011;12643;51.620;7.548;2023-07-20T01:59:52;15.27;;;6.28;;
24483;SDS011;12643;51.620;7.548;2023-07-20T02:02:20;9.18;;;4.97;;
24483;SDS011;12643;51.620;7.548;2023-07-20T02:04:47;9.40;;;4.63;;
24483;SDS011;12643;51.620;7.548;2023-07-20T02:07:17;5.63;;;4.55;;
24483;SDS011;12643;51.620;7.548;2023-07-20T02:09:45;6.03;;;5.10;;
24483;SDS011;12643;51.620;7.548;2023-07-20T02:12:12;8.43;;;6.38;;
24483;SDS011;12643;51.620;7.548;2023-07-20T02:14:40;7.25;;;4.82;;
24483;SDS011;12643;51.620;7.548;2023-07-20T02:17:08;7.03;;;4.88;;
24483;SDS011;12643;51.620;7.548;2023-07-20T02:19:37;8.73;;;5.60;;
24483;SDS011;12643;51.620;7.548;2023-07-20T02:22:07;5.88;;;4.88;;
24483;SDS011;12643;51.620;7.548;2023-07-20T02:24:36;12.60;;;6.93;;
24483;SDS011;12643;51.620;7.548;2023-07-20T02:27:04;11.32;;;6.10;;
24483;SDS011;12643;51.620;7.548;2023-07-20T02:29:32;9.35;;;6.55;;
24483;SDS011;12643;51.620;7.548;2023-07-20T02:32:05;12.88;;;6.78;;
24483;SDS011;12643;51.620;7.548;2023-07-20T02:34:33;10.60;;;6.70;;
24483;SDS011;12643;51.620;7.548;2023-07-20T02:37:01;13.35;;;6.35;;
24483;SDS011;12643;51.620;7.548;2023-07-20T02:39:29;11.85;;;6.90;;
24483;SDS011;12643;51.620;7.548;2023-07-20T02:42:02;10.00;;;6.07;;
24483;SDS011;12643;51.620;7.548;2023-07-20T02:44:30;10.63;;;6.68;;
24483;SDS011;12643;51.620;7.548;2023-07-20T02:47:01;8.07;;;6.28;;
24483;SDS011;12643;51.620;7.548;2023-07-20T02:49:29;10.55;;;5.93;;
24483;SDS011;12643;51.620;7.548;2023-07-20T02:51:57;8.18;;;6.50;;
24483;SDS011;12643;51.620;7.548;2023-07-20T02:54:25;9.20;;;6.30;;
24483;SDS011;12643;51.620;7.548;2023-07-20T02:56:52;14.25;;;8.15;;
24483;SDS011;12643;51.620;7.548;2023-07-20T02:59:22;10.00;;;8.20;;
24483;SDS011;12643;51.620;7.548;2023-07-20T03:01:50;12.00;;;9.52;;
24483;SDS011;12643;51.620;7.548;2023-07-20T03:04:18;17.60;;;10.63;;
24483;SDS011;12643;51.620;7.548;2023-07-20T03:06:47;13.23;;;9.20;;
24483;SDS011;12643;51.620;7.548;2023-07-20T03:09:15;12.07;;;8.77;;
24483;SDS011;12643;51.620;7.548;2023-07-20T03:11:42;12.40;;;8.95;;
24483;SDS011;12643;51.620;7.548;2023-07-20T03:14:10;13.60;;;10.40;;
24483;SDS011;12643;51.620;7.548;2023-07-20T03:16:40;14.65;;;11.10;;
24483;SDS011;12643;51.620;7.548;2023-07-20T03:19:08;15.50;;;11.20;;
24483;SDS011;12643;51.620;7.548;2023-07-20T03:21:36;13.73;;;11.18;;
24483;SDS011;12643;51.620;7.548;2023-07-20T03:24:06;11.38;;;9.23;;
24483;SDS011;12643;51.620;7.548;2023-07-20T03:26:35;15.40;;;11.20;;
24483;SDS011;12643;51.620;7.548;2023-07-20T03:29:03;14.93;;;10.55;;
24483;SDS011;12643;51.620;7.548;2023-07-20T03:34:03;14.40;;;11.63;;
24483;SDS011;12643;51.620;7.548;2023-07-20T03:36:31;14.23;;;11.10;;
24483;SDS011;12643;51.620;7.548;2023-07-20T03:39:00;18.92;;;11.63;;
24483;SDS011;12643;51.620;7.548;2023-07-20T03:41:28;13.18;;;10.10;;
24483;SDS011;12643;51.620;7.548;2023-07-20T03:43:56;13.35;;;10.82;;
24483;SDS011;12643;51.620;7.548;2023-07-20T03:46:24;13.35;;;11.02;;
24483;SDS011;12643;51.620;7.548;2023-07-20T03:48:52;17.48;;;12.02;;
24483;SDS011;12643;51.620;7.548;2023-07-20T03:51:21;14.10;;;10.50;;
24483;SDS011;12643;51.620;7.548;2023-07-20T03:53:49;15.35;;;12.07;;
24483;SDS011;12643;51.620;7.548;2023-07-20T03:56:17;19.25;;;13.02;;
24483;SDS011;12643;51.620;7.548;2023-07-20T03:58:45;17.75;;;12.57;;
24483;SDS011;12643;51.620;7.548;2023-07-20T04:01:13;16.00;;;12.25;;
24483;SDS011;12643;51.620;7.548;2023-07-20T04:03:42;14.70;;;12.25;;
24483;SDS011;12643;51.620;7.548;2023-07-20T04:06:10;14.50;;;10.90;;
24483;SDS011;12643;51.620;7.548;2023-07-20T04:08:44;15.13;;;11.43;;
24483;SDS011;12643;51.620;7.548;2023-07-20T04:11:13;16.40;;;11.75;;
24483;SDS011;12643;51.620;7.548;2023-07-20T04:13:41;15.65;;;11.77;;
24483;SDS011;12643;51.620;7.548;2023-07-20T04:16:09;16.83;;;13.65;;
24483;SDS011;12643;51.620;7.548;2023-07-20T04:18:37;21.38;;;12.98;;
24483;SDS011;12643;51.620;7.548;2023-07-20T04:21:04;16.83;;;13.07;;
24483;SDS011;12643;51.620;7.548;2023-07-20T04:23:34;19.23;;;13.80;;
24483;SDS011;12643;51.620;7.548;2023-07-20T04:26:03;15.65;;;12.68;;
24483;SDS011;12643;51.620;7.548;2023-07-20T04:28:32;22.05;;;13.93;;
24483;SDS011;12643;51.620;7.548;2023-07-20T04:31:09;15.98;;;13.32;;
24483;SDS011;12643;51.620;7.548;2023-07-20T04:33:38;17.15;;;13.38;;
24483;SDS011;12643;51.620;7.548;2023-07-20T04:36:06;16.73;;;13.38;;
24483;SDS011;12643;51.620;7.548;2023-07-20T04:38:34;13.98;;;12.25;;
24483;SDS011;12643;51.620;7.548;2023-07-20T04:41:03;18.13;;;13.02;;
24483;SDS011;12643;51.620;7.548;2023-07-20T04:43:31;18.05;;;12.75;;
24483;SDS011;12643;51.620;7.548;2023-07-20T04:45:59;16.83;;;12.77;;
24483;SDS011;12643;51.620;7.548;2023-07-20T04:48:27;15.15;;;13.27;;
24483;SDS011;12643;51.620;7.548;2023-07-20T04:50:55;13.93;;;12.25;;
24483;SDS011;12643;51.620;7.548;2023-07-20T04:53:23;16.92;;;13.32;;
24483;SDS011;12643;51.620;7.548;2023-07-20T04:55:50;12.80;;;11.43;;
24483;SDS011;12643;51.620;7.548;2023-07-20T04:58:21;12.52;;;11.15;;
24483;SDS011;12643;51.620;7.548;2023-07-20T05:00:50;11.63;;;10.45;;
24483;SDS011;12643;51.620;7.548;2023-07-20T05:03:19;11.05;;;9.95;;
24483;SDS011;12643;51.620;7.548;2023-07-20T05:05:47;10.20;;;9.20;;
24483;SDS011;12643;51.620;7.548;2023-07-20T05:08:15;9.70;;;8.75;;
24483;SDS011;12643;51.620;7.548;2023-07-20T05:10:43;9.80;;;8.82;;
24483;SDS011;12643;51.620;7.548;2023-07-20T05:13:11;12.80;;;8.45;;
24483;SDS011;12643;51.620;7.548;2023-07-20T05:15:40;11.50;;;9.02;;
24483;SDS011;12643;51.620;7.548;2023-07-20T05:18:08;9.52;;;8.52;;
24483;SDS011;12643;51.620;7.548;2023-07-20T05:20:36;10.10;;;9.05;;
24483;SDS011;12643;51.620;7.548;2023-07-20T05:23:04;10.30;;;8.55;;
24483;SDS011;12643;51.620;7.548;2023-07-20T05:25:31;10.32;;;9.25;;
24483;SDS011;12643;51.620;7.548;2023-07-20T05:28:00;9.68;;;8.23;;
24483;SDS011;12643;51.620;7.548;2023-07-20T05:30:28;9.55;;;8.55;;
24483;SDS011;12643;51.620;7.548;2023-07-20T05:32:57;9.68;;;8.55;;
24483;SDS011;12643;51.620;7.548;2023-07-20T05:35:25;8.35;;;7.55;;
24483;SDS011;12643;51.620;7.548;2023-07-20T05:37:53;10.25;;;8.60;;
24483;SDS011;12643;51.620;7.548;2023-07-20T05:40:22;9.88;;;8.88;;
24483;SDS011;12643;51.620;7.548;2023-07-20T05:42:49;10.10;;;9.10;;
24483;SDS011;12643;51.620;7.548;2023-07-20T05:45:19;10.27;;;8.18;;
24483;SDS011;12643;51.620;7.548;2023-07-20T05:47:47;9.18;;;8.35;;
24483;SDS011;12643;51.620;7.548;2023-07-20T05:50:16;9.80;;;8.23;;
24483;SDS011;12643;51.620;7.548;2023-07-20T05:52:44;9.73;;;8.50;;
24483;SDS011;12643;51.620;7.548;2023-07-20T05:55:13;10.25;;;8.90;;
24483;SDS011;12643;51.620;7.548;2023-07-20T05:57:41;8.85;;;7.95;;
24483;SDS011;12643;51.620;7.548;2023-07-20T06:00:10;8.57;;;7.80;;
24483;SDS011;12643;51.620;7.548;2023-07-20T06:02:38;10.25;;;8.38;;
24483;SDS011;12643;51.620;7.548;2023-07-20T06:05:10;7.60;;;6.90;;
24483;SDS011;12643;51.620;7.548;2023-07-20T06:07:40;8.80;;;6.95;;
24483;SDS011;12643;51.620;7.548;2023-07-20T06:10:08;8.25;;;6.88;;
24483;SDS011;12643;51.620;7.548;2023-07-20T06:12:36;10.30;;;7.57;;
24483;SDS011;12643;51.620;7.548;2023-07-20T06:15:05;8.15;;;7.35;;
24483;SDS011;12643;51.620;7.548;2023-07-20T06:17:50;9.55;;;7.45;;
24483;SDS011;12643;51.620;7.548;2023-07-20T06:20:18;8.07;;;6.32;;
24483;SDS011;12643;51.620;7.548;2023-07-20T06:22:48;7.38;;;6.38;;
24483;SDS011;12643;51.620;7.548;2023-07-20T06:25:16;7.75;;;6.95;;
24483;SDS011;12643;51.620;7.548;2023-07-20T06:27:43;7.60;;;6.80;;
24483;SDS011;12643;51.620;7.548;2023-07-20T06:30:11;6.60;;;5.40;;
24483;SDS011;12643;51.620;7.548;2023-07-20T06:32:39;6.50;;;5.68;;
24483;SDS011;12643;51.620;7.548;2023-07-20T06:35:08;6.05;;;5.38;;
24483;SDS011;12643;51.620;7.548;2023-07-20T06:37:36;7.82;;;5.97;;
24483;SDS011;12643;51.620;7.548;2023-07-20T06:40:06;5.63;;;5.13;;
24483;SDS011;12643;51.620;7.548;2023-07-20T06:42:35;5.85;;;5.35;;
24483;SDS011;12643;51.620;7.548;2023-07-20T06:45:03;6.75;;;5.15;;
24483;SDS011;12643;51.620;7.548;2023-07-20T06:47:32;7.03;;;5.45;;
24483;SDS011;12643;51.620;7.548;2023-07-20T06:50:00;6.10;;;5.57;;
24483;SDS011;12643;51.620;7.548;2023-07-20T06:52:28;5.32;;;4.50;;
24483;SDS011;12643;51.620;7.548;2023-07-20T06:54:56;6.07;;;5.38;;
24483;SDS011;12643;51.620;7.548;2023-07-20T06:57:26;5.72;;;5.05;;
24483;SDS011;12643;51.620;7.548;2023-07-20T06:59:54;6.03;;;4.10;;
24483;SDS011;12643;51.620;7.548;2023-07-20T07:02:22;6.18;;;4.00;;
24483;SDS011;12643;51.620;7.548;2023-07-20T07:04:50;5.47;;;3.42;;
24483;SDS011;12643;51.620;7.548;2023-07-20T07:07:19;4.60;;;2.65;;
24483;SDS011;12643;51.620;7.548;2023-07-20T07:09:47;3.92;;;2.17;;
24483;SDS011;12643;51.620;7.548;2023-07-20T07:12:16;3.53;;;2.00;;
24483;SDS011;12643;51.620;7.548;2023-07-20T07:14:48;3.15;;;2.00;;
24483;SDS011;12643;51.620;7.548;2023-07-20T07:17:22;2.55;;;2.22;;
24483;SDS011;12643;51.620;7.548;2023-07-20T07:19:54;2.42;;;2.22;;
24483;SDS011;12643;51.620;7.548;2023-07-20T07:24:51;2.83;;;2.10;;
24483;SDS011;12643;51.620;7.548;2023-07-20T07:27:22;3.42;;;2.20;;
24483;SDS011;12643;51.620;7.548;2023-07-20T07:29:53;2.60;;;2.40;;
24483;SDS011;12643;51.620;7.548;2023-07-20T07:32:21;4.38;;;2.60;;
24483;SDS011;12643;51.620;7.548;2023-07-20T07:34:49;2.92;;;1.98;;
24483;SDS011;12643;51.620;7.548;2023-07-20T07:37:17;5.18;;;1.67;;
24483;SDS011;12643;51.620;7.548;2023-07-20T07:39:46;2.67;;;1.95;;
24483;SDS011;12643;51.620;7.548;2023-07-20T07:42:14;4.30;;;1.85;;
24483;SDS011;12643;51.620;7.548;2023-07-20T07:44:42;2.53;;;1.70;;
24483;SDS011;12643;51.620;7.548;2023-07-20T07:47:11;3.88;;;2.17;;
24483;SDS011;12643;51.620;7.548;2023-07-20T07:49:40;7.10;;;1.83;;
24483;SDS011;12643;51.620;7.548;2023-07-20T07:52:09;2.42;;;2.00;;
24483;SDS011;12643;51.620;7.548;2023-07-20T07:54:36;3.60;;;1.63;;
24483;SDS011;12643;51.620;7.548;2023-07-20T07:57:04;2.90;;;2.03;;
24483;SDS011;12643;51.620;7.548;2023-07-20T07:59:32;2.45;;;2.03;;
24483;SDS011;12643;51.620;7.548;2023-07-20T08:02:02;2.80;;;2.53;;
24483;SDS011;12643;51.620;7.548;2023-07-20T08:04:32;4.43;;;2.35;;
24483;SDS011;12643;51.620;7.548;2023-07-20T08:07:04;3.50;;;2.70;;
24483;SDS011;12643;51.620;7.548;2023-07-20T08:09:32;2.80;;;2.20;;
24483;SDS011;12643;51.620;7.548;2023-07-20T08:12:00;1.92;;;1.77;;
24483;SDS011;12643;51.620;7.548;2023-07-20T08:14:29;4.50;;;2.22;;
24483;SDS011;12643;51.620;7.548;2023-07-20T08:16:57;3.45;;;1.92;;
24483;SDS011;12643;51.620;7.548;2023-07-20T08:19:25;2.42;;;1.95;;
24483;SDS011;12643;51.620;7.548;2023-07-20T08:21:54;2.22;;;1.80;;
24483;SDS011;12643;51.620;7.548;2023-07-20T08:24:22;3.13;;;1.30;;
24483;SDS011;12643;51.620;7.548;2023-07-20T08:26:50;1.95;;;1.75;;
24483;SDS011;12643;51.620;7.548;2023-07-20T08:29:17;2.17;;;1.70;;
24483;SDS011;12643;51.620;7.548;2023-07-20T08:31:45;1.80;;;1.60;;
24483;SDS011;12643;51.620;7.548;2023-07-20T08:34:14;5.30;;;1.80;;
24483;SDS011;12643;51.620;7.548;2023-07-20T08:36:42;4.63;;;2.00;;
24483;SDS011;12643;51.620;7.548;2023-07-20T08:39:11;1.40;;;1.25;;
24483;SDS011;12643;51.620;7.548;2023-07-20T08:41:39;3.60;;;1.17;;
24483;SDS011;12643;51.620;7.548;2023-07-20T08:44:09;2.45;;;0.93;;
24483;SDS011;12643;51.620;7.548;2023-07-20T08:46:38;1.50;;;1.00;;
24483;SDS011;12643;51.620;7.548;2023-07-20T08:49:06;1.73;;;0.90;;
24483;SDS011;12643;51.620;7.548;2023-07-20T08:51:35;1.15;;;1.00;;
24483;SDS011;12643;51.620;7.548;2023-07-20T08:54:03;1.50;;;1.13;;
24483;SDS011;12643;51.620;7.548;2023-07-20T08:56:32;1.55;;;1.30;;
24483;SDS011;12643;51.620;7.548;2023-07-20T08:59:01;1.73;;;1.25;;
24483;SDS011;12643;51.620;7.548;2023-07-20T09:01:31;1.42;;;1.00;;
24483;SDS011;12643;51.620;7.548;2023-07-20T09:04:00;2.33;;;1.42;;
24483;SDS011;12643;51.620;7.548;2023-07-20T09:06:28;1.33;;;1.13;;
24483;SDS011;12643;51.620;7.548;2023-07-20T09:08:56;3.92;;;1.20;;
24483;SDS011;12643;51.620;7.548;2023-07-20T09:11:24;1.67;;;1.00;;
24483;SDS011;12643;51.620;7.548;2023-07-20T09:14:03;1.30;;;0.85;;
24483;SDS011;12643;51.620;7.548;2023-07-20T09:16:32;1.23;;;0.80;;
24483;SDS011;12643;51.620;7.548;2023-07-20T09:19:02;4.00;;;1.05;;
24483;SDS011;12643;51.620;7.548;2023-07-20T09:21:30;1.92;;;0.70;;
24483;SDS011;12643;51.620;7.548;2023-07-20T09:23:58;1.30;;;1.20;;
24483;SDS011;12643;51.620;7.548;2023-07-20T09:26:26;3.13;;;1.13;;
24483;SDS011;12643;51.620;7.548;2023-07-20T09:28:54;2.58;;;0.95;;
24483;SDS011;12643;51.620;7.548;2023-07-20T09:31:23;2.35;;;0.90;;
24483;SDS011;12643;51.620;7.548;2023-07-20T09:33:52;1.92;;;0.73;;
24483;SDS011;12643;51.620;7.548;2023-07-20T09:36:20;1.55;;;0.80;;
24483;SDS011;12643;51.620;7.548;2023-07-20T09:38:48;1.30;;;0.70;;
24483;SDS011;12643;51.620;7.548;2023-07-20T09:41:16;3.58;;;1.08;;
24483;SDS011;12643;51.620;7.548;2023-07-20T09:43:46;1.10;;;0.88;;
24483;SDS011;12643;51.620;7.548;2023-07-20T09:46:14;2.40;;;0.85;;
24483;SDS011;12643;51.620;7.548;2023-07-20T09:48:48;1.38;;;0.85;;
24483;SDS011;12643;51.620;7.548;2023-07-20T09:51:20;3.08;;;0.93;;
24483;SDS011;12643;51.620;7.548;2023-07-20T09:53:50;1.42;;;0.70;;
24483;SDS011;12643;51.620;7.548;2023-07-20T09:58:49;1.40;;;0.80;;
24483;SDS011;12643;51.620;7.548;2023-07-20T10:01:17;0.80;;;0.80;;
24483;SDS011;12643;51.620;7.548;2023-07-20T10:03:49;1.40;;;0.50;;
24483;SDS011;12643;51.620;7.548;2023-07-20T10:06:20;1.40;;;0.50;;
24483;SDS011;12643;51.620;7.548;2023-07-20T10:08:52;1.63;;;0.80;;
24483;SDS011;12643;51.620;7.548;2023-07-20T10:11:22;2.33;;;0.60;;
24483;SDS011;12643;51.620;7.548;2023-07-20T10:13:53;0.88;;;0.77;;
24483;SDS011;12643;51.620;7.548;2023-07-20T10:16:26;0.65;;;0.60;;
24483;SDS011;12643;51.620;7.548;2023-07-20T10:19:01;1.08;;;0.47;;
24483;SDS011;12643;51.620;7.548;2023-07-20T10:21:32;1.13;;;0.52;;
24483;SDS011;12643;51.620;7.548;2023-07-20T10:24:03;1.85;;;0.40;;
24483;SDS011;12643;51.620;7.548;2023-07-20T10:26:33;0.73;;;0.68;;
24483;SDS011;12643;51.620;7.548;2023-07-20T10:29:01;2.10;;;0.52;;
24483;SDS011;12643;51.620;7.548;2023-07-20T10:31:30;2.15;;;0.80;;
24483;SDS011;12643;51.620;7.548;2023-07-20T10:34:00;1.65;;;0.70;;
24483;SDS011;12643;51.620;7.548;2023-07-20T10:36:30;1.08;;;0.70;;
24483;SDS011;12643;51.620;7.548;2023-07-20T10:39:00;1.15;;;0.50;;
24483;SDS011;12643;51.620;7.548;2023-07-20T10:41:29;0.70;;;0.70;;
24483;SDS011;12643;51.620;7.548;2023-07-20T10:44:01;2.10;;;0.65;;
24483;SDS011;12643;51.620;7.548;2023-07-20T10:49:26;0.75;;;0.55;;
24483;SDS011;12643;51.620;7.548;2023-07-20T10:51:58;1.00;;;0.70;;
24483;SDS011;12643;51.620;7.548;2023-07-20T10:57:27;4.80;;;0.90;;
24483;SDS011;12643;51.620;7.548;2023-07-20T11:00:09;0.82;;;0.50;;
24483;SDS011;12643;51.620;7.548;2023-07-20T11:02:47;0.50;;;0.43;;
24483;SDS011;12643;51.620;7.548;2023-07-20T11:05:35;0.80;;;0.80;;
24483;SDS011;12643;51.620;7.548;2023-07-20T11:08:09;3.13;;;0.70;;
24483;SDS011;12643;51.620;7.548;2023-07-20T11:10:38;1.70;;;0.77;;
24483;SDS011;12643;51.620;7.548;2023-07-20T11:13:16;2.63;;;1.05;;
24483;SDS011;12643;51.620;7.548;2023-07-20T11:16:00;1.13;;;1.00;;
24483;SDS011;12643;51.620;7.548;2023-07-20T11:18:32;2.05;;;0.70;;
24483;SDS011;12643;51.620;7.548;2023-07-20T11:21:08;0.80;;;0.80;;
24483;SDS011;12643;51.620;7.548;2023-07-20T11:23:38;1.52;;;0.82;;
24483;SDS011;12643;51.620;7.548;2023-07-20T11:26:06;0.80;;;0.80;;
24483;SDS011;12643;51.620;7.548;2023-07-20T11:28:34;3.88;;;0.80;;
24483;SDS011;12643;51.620;7.548;2023-07-20T11:31:02;1.95;;;0.70;;
24483;SDS011;12643;51.620;7.548;2023-07-20T11:33:30;1.20;;;0.80;;
24483;SDS011;12643;51.620;7.548;2023-07-20T11:35:58;0.60;;;0.60;;
24483;SDS011;12643;51.620;7.548;2023-07-20T11:38:27;2.80;;;1.00;;
24483;SDS011;12643;51.620;7.548;2023-07-20T11:40:55;2.35;;;0.93;;
24483;SDS011;12643;51.620;7.548;2023-07-20T11:43:24;0.88;;;0.70;;
24483;SDS011;12643;51.620;7.548;2023-07-20T11:45:52;1.75;;;0.98;;
24483;SDS011;12643;51.620;7.548;2023-07-20T11:48:20;2.97;;;0.80;;
24483;SDS011;12643;51.620;7.548;2023-07-20T11:50:48;1.83;;;0.80;;
24483;SDS011;12643;51.620;7.548;2023-07-20T11:53:16;0.70;;;0.70;;
24483;SDS011;12643;51.620;7.548;2023-07-20T11:55:47;1.08;;;0.73;;
24483;SDS011;12643;51.620;7.548;2023-07-20T11:58:15;3.08;;;0.73;;
24483;SDS011;12643;51.620;7.548;2023-07-20T12:00:44;0.65;;;0.65;;
24483;SDS011;12643;51.620;7.548;2023-07-20T12:05:47;0.60;;;0.60;;
24483;SDS011;12643;51.620;7.548;2023-07-20T12:08:22;1.42;;;0.80;;
24483;SDS011;12643;51.620;7.548;2023-07-20T12:10:55;2.90;;;0.80;;
24483;SDS011;12643;51.620;7.548;2023-07-20T12:13:23;0.88;;;0.82;;
24483;SDS011;12643;51.620;7.548;2023-07-20T12:16:06;0.80;;;0.80;;
24483;SDS011;12643;51.620;7.548;2023-07-20T12:18:42;0.90;;;0.90;;
24483;SDS011;12643;51.620;7.548;2023-07-20T12:21:10;2.45;;;0.70;;
24483;SDS011;12643;51.620;7.548;2023-07-20T12:23:39;1.02;;;0.88;;
24483;SDS011;12643;51.620;7.548;2023-07-20T12:26:11;1.55;;;0.70;;
24483;SDS011;12643;51.620;7.548;2023-07-20T12:28:42;1.25;;;1.00;;
24483;SDS011;12643;51.620;7.548;2023-07-20T12:31:15;1.30;;;0.40;;
24483;SDS011;12643;51.620;7.548;2023-07-20T12:33:43;2.40;;;1.13;;
24483;SDS011;12643;51.620;7.548;2023-07-20T12:36:12;1.30;;;0.80;;
24483;SDS011;12643;51.620;7.548;2023-07-20T12:38:41;0.77;;;0.77;;
24483;SDS011;12643;51.620;7.548;2023-07-20T12:41:15;1.10;;;0.88;;
24483;SDS011;12643;51.620;7.548;2023-07-20T12:43:44;1.08;;;0.77;;
24483;SDS011;12643;51.620;7.548;2023-07-20T12:46:13;1.15;;;0.90;;
24483;SDS011;12643;51.620;7.548;2023-07-20T12:48:41;1.00;;;1.00;;
24483;SDS011;12643;51.620;7.548;2023-07-20T12:51:09;0.65;;;0.65;;
24483;SDS011;12643;51.620;7.548;2023-07-20T12:53:38;1.13;;;0.75;;
24483;SDS011;12643;51.620;7.548;2023-07-20T12:56:06;1.60;;;0.88;;
24483;SDS011;12643;51.620;7.548;2023-07-20T12:58:38;1.45;;;0.80;;
24483;SDS011;12643;51.620;7.548;2023-07-20T13:01:09;0.77;;;0.77;;
24483;SDS011;12643;51.620;7.548;2023-07-20T13:03:37;1.05;;;0.95;;
24483;SDS011;12643;51.620;7.548;2023-07-20T13:06:05;1.38;;;0.90;;
24483;SDS011;12643;51.620;7.548;2023-07-20T13:08:33;0.80;;;0.80;;
24483;SDS011;12643;51.620;7.548;2023-07-20T13:11:01;0.70;;;0.70;;
24483;SDS011;12643;51.620;7.548;2023-07-20T13:13:30;1.33;;;0.68;;
24483;SDS011;12643;51.620;7.548;2023-07-20T13:15:59;1.50;;;1.00;;
24483;SDS011;12643;51.620;7.548;2023-07-20T13:18:27;0.63;;;0.63;;
24483;SDS011;12643;51.620;7.548;2023-07-20T13:20:55;0.88;;;0.80;;
24483;SDS011;12643;51.620;7.548;2023-07-20T13:23:23;0.60;;;0.60;;
24483;SDS011;12643;51.620;7.548;2023-07-20T13:25:51;3.35;;;1.00;;
24483;SDS011;12643;51.620;7.548;2023-07-20T13:28:19;0.95;;;0.80;;
24483;SDS011;12643;51.620;7.548;2023-07-20T13:30:47;3.85;;;0.77;;
24483;SDS011;12643;51.620;7.548;2023-07-20T13:33:16;1.10;;;0.80;;
24483;SDS011;12643;51.620;7.548;2023-07-20T13:35:44;0.68;;;0.68;;
24483;SDS011;12643;51.620;7.548;2023-07-20T13:38:12;0.70;;;0.70;;
24483;SDS011;12643;51.620;7.548;2023-07-20T13:40:40;0.77;;;0.65;;
24483;SDS011;12643;51.620;7.548;2023-07-20T13:43:09;0.77;;;0.65;;
24483;SDS011;12643;51.620;7.548;2023-07-20T13:45:37;1.67;;;0.70;;
24483;SDS011;12643;51.620;7.548;2023-07-20T13:48:05;0.75;;;0.63;;
24483;SDS011;12643;51.620;7.548;2023-07-20T13:50:35;1.90;;;0.77;;
24483;SDS011;12643;51.620;7.548;2023-07-20T13:53:03;0.50;;;0.50;;
24483;SDS011;12643;51.620;7.548;2023-07-20T13:55:31;0.73;;;0.73;;
24483;SDS011;12643;51.620;7.548;2023-07-20T13:58:03;0.77;;;0.77;;
24483;SDS011;12643;51.620;7.548;2023-07-20T14:00:31;0.80;;;0.75;;
24483;SDS011;12643;51.620;7.548;2023-07-20T14:03:00;0.60;;;0.60;;
24483;SDS011;12643;51.620;7.548;2023-07-20T14:05:28;2.05;;;0.47;;
24483;SDS011;12643;51.620;7.548;2023-07-20T14:07:58;2.15;;;0.70;;
24483;SDS011;12643;51.620;7.548;2023-07-20T14:10:26;0.68;;;0.55;;
24483;SDS011;12643;51.620;7.548;2023-07-20T14:12:54;0.73;;;0.70;;
24483;SDS011;12643;51.620;7.548;2023-07-20T14:15:22;1.08;;;0.75;;
24483;SDS011;12643;51.620;7.548;2023-07-20T14:17:50;1.45;;;0.88;;
24483;SDS011;12643;51.620;7.548;2023-07-20T14:20:18;1.80;;;0.70;;
24483;SDS011;12643;51.620;7.548;2023-07-20T14:22:46;1.42;;;1.00;;
24483;SDS011;12643;51.620;7.548;2023-07-20T14:25:16;3.30;;;1.15;;
24483;SDS011;12643;51.620;7.548;2023-07-20T14:27:44;0.60;;;0.60;;
24483;SDS011;12643;51.620;7.548;2023-07-20T14:30:12;0.70;;;0.57;;
24483;SDS011;12643;51.620;7.548;2023-07-20T14:32:40;1.95;;;0.70;;
24483;SDS011;12643;51.620;7.548;2023-07-20T14:35:08;1.95;;;0.52;;
24483;SDS011;12643;51.620;7.548;2023-07-20T14:37:36;0.95;;;0.60;;
24483;SDS011;12643;51.620;7.548;2023-07-20T14:40:05;1.52;;;0.63;;
24483;SDS011;12643;51.620;7.548;2023-07-20T14:42:35;1.40;;;0.60;;
24483;SDS011;12643;51.620;7.548;2023-07-20T14:45:03;2.05;;;0.63;;
24483;SDS011;12643;51.620;7.548;2023-07-20T14:47:32;1.52;;;0.80;;
24483;SDS011;12643;51.620;7.548;2023-07-20T14:50:00;0.57;;;0.50;;
24483;SDS011;12643;51.620;7.548;2023-07-20T14:52:29;0.73;;;0.70;;
24483;SDS011;12643;51.620;7.548;2023-07-20T14:54:57;0.77;;;0.63;;
24483;SDS011;12643;51.620;7.548;2023-07-20T14:57:25;1.15;;;0.57;;
24483;SDS011;12643;51.620;7.548;2023-07-20T14:59:54;0.68;;;0.68;;
24483;SDS011;12643;51.620;7.548;2023-07-20T15:02:22;2.15;;;0.70;;
24483;SDS011;12643;51.620;7.548;2023-07-20T15:04:50;1.63;;;0.55;;
24483;SDS011;12643;51.620;7.548;2023-07-20T15:07:19;1.00;;;0.60;;
24483;SDS011;12643;51.620;7.548;2023-07-20T15:09:48;1.17;;;0.60;;
24483;SDS011;12643;51.620;7.548;2023-07-20T15:12:16;0.70;;;0.70;;
24483;SDS011;12643;51.620;7.548;2023-07-20T15:14:44;1.15;;;0.80;;
24483;SDS011;12643;51.620;7.548;2023-07-20T15:17:29;0.70;;;0.70;;